Lexington, Minnesota
Current Conditions -  °F | °C
As of 12:45 PM on Thursday 27 Nov 2014 (Local Time) from KANE Reporting Station
Clear Clear  
Wind Chill:   Ceiling: Unl
Heat Index:   Visibility: 10mi
Dew Point: -2°   Wind: 3mph
Humidity: 62%   Direction: 260°W
Pressure: 30.46"   Gusts: NA
Location:  45.1631°N, 93.1211°W
Report Text: KANE 271845Z 26003KT 10SM SKC M13/M19 A3046
Loading
Personal Weather Stations






























Interactive Weather Map New forecast layout! Learn more

10-Day Weather Forecast

Advertisements
Track Severe Weather on mobile